| time (UTC) | temp C | wind direction | speed KPH | gust KPH | rain 1hr cm | rain 24hr cm | rain mn cm | humidity % | barometer mb |
| 20260509064519 | 20 | 355 | 4.8 | 9.7 | 0.00 | 0.00 | 0.00 | 90 | 1008.0 |
| 20260509063007 | 19 | 351 | 6.4 | 14.5 | 0.00 | 0.00 | 0.00 | 89 | 1008.0 |
| 20260509061517 | 20 | 142 | 3.2 | 8.0 | 0.00 | 0.00 | 0.00 | 89 | 1007.0 |
| 20260509060006 | 20 | 146 | 9.7 | 14.5 | 0.00 | 0.00 | 0.00 | 88 | 1006.5 |
| 20260509054503 | 20 | 167 | 6.4 | 11.3 | 0.00 | 0.00 | 0.00 | 88 | 1006.9 |
| 20260509053102 | 20 | 154 | 3.2 | 8.0 | 0.00 | 0.00 | 0.00 | 86 | 1007.2 |
| 20260509051558 | 20 | 213 | 4.8 | 9.7 | 0.00 | 0.00 | 0.00 | 86 | 1007.7 |
| 20260509050055 | 20 | 223 | 0.0 | 3.2 | 0.00 | 0.00 | 0.00 | 86 | 1007.8 |
| 20260509044558 | 20 | 209 | 1.6 | 6.4 | 0.00 | 0.00 | 0.00 | 85 | 1007.2 |
| 20260509043059 | 20 | 162 | 1.6 | 3.2 | 0.00 | 0.00 | 0.00 | 85 | 1007.4 |
| 20260509041554 | 20 | 174 | 0.0 | 0.0 | 0.00 | 0.00 | 0.00 | 84 | 1007.0 |
| 20260509040053 | 20 | 122 | 0.0 | 9.7 | 0.00 | 0.00 | 0.00 | 84 | 1006.8 |
| 20260509034600 | 20 | 104 | 8.0 | 20.9 | 0.00 | 0.00 | 0.00 | 84 | 1006.5 |
| 20260509033052 | 21 | 139 | 11.3 | 20.9 | 0.00 | 0.00 | 0.00 | 83 | 1006.8 |
| 20260509031551 | 21 | 109 | 4.8 | 9.7 | 0.00 | 0.00 | 0.00 | 83 | 1006.9 |
| 20260509030051 | 21 | 311 | 0.0 | 3.2 | 0.00 | 0.00 | 0.00 | 83 | 1007.2 |
| 20260509024552 | 21 | 56 | 0.0 | 3.2 | 0.00 | 0.00 | 0.00 | 83 | 1007.3 |
| 20260509023050 | 21 | 79 | 3.2 | 4.8 | 0.00 | 0.00 | 0.00 | 81 | 1007.0 |
| 20260509021550 | 21 | 92 | 1.6 | 4.8 | 0.00 | 0.00 | 0.00 | 80 | 1006.7 |
| 20260509020048 | 21 | 129 | 3.2 | 11.3 | 0.00 | 0.00 | 0.00 | 79 | 1006.1 |
| 20260509014550 | 21 | 155 | 6.4 | 9.7 | 0.00 | 0.00 | 0.00 | 77 | 1005.7 |
| 20260509013048 | 21 | 141 | 6.4 | 11.3 | 0.00 | 0.00 | 0.00 | 76 | 1005.9 |
| 20260509011547 | 22 | 149 | 4.8 | 11.3 | 0.00 | 0.00 | 0.00 | 75 | 1005.8 |
| 20260509010047 | 22 | 147 | 6.4 | 11.3 | 0.00 | 0.00 | 0.00 | 74 | 1005.7 |
| 20260509004548 | 22 | 155 | 9.7 | 17.7 | 0.00 | 0.00 | 0.00 | 73 | 1005.6 |
| 20260509003046 | 22 | 148 | 9.7 | 16.1 | 0.00 | 0.00 | 0.00 | 73 | 1005.4 |
| 20260509001545 | 23 | 166 | 11.3 | 20.9 | 0.00 | 0.00 | 0.00 | 73 | 1005.3 |
| 20260509000044 | 23 | 168 | 14.5 | 20.9 | 0.00 | 0.00 | 0.00 | 72 | 1005.4 |
| 20260508234546 | 23 | 149 | 14.5 | 24.1 | 0.00 | 0.00 | 0.00 | 71 | 1005.4 |
| 20260508233042 | 23 | 162 | 12.9 | 24.1 | 0.00 | 0.00 | 0.00 | 70 | 1005.3 |
| 20260508231602 | 23 | 146 | 12.9 | 22.5 | 0.00 | 0.00 | 0.00 | 69 | 1005.6 |
| 20260508230054 | 24 | 138 | 12.9 | 24.1 | 0.00 | 0.00 | 0.00 | 68 | 1005.6 |
| 20260508224539 | 24 | 150 | 14.5 | 20.9 | 0.00 | 0.00 | 0.00 | 67 | 1005.6 |
| 20260508223043 | 24 | 131 | 14.5 | 24.1 | 0.00 | 0.00 | 0.00 | 65 | 1005.6 |
| 20260508221539 | 24 | 121 | 12.9 | 20.9 | 0.00 | 0.00 | 0.00 | 65 | 1005.7 |
| 20260508220040 | 24 | 142 | 12.9 | 20.9 | 0.00 | 0.00 | 0.00 | 66 | 1005.5 |
| 20260508214554 | 25 | 127 | 12.9 | 20.9 | 0.00 | 0.00 | 0.00 | 65 | 1005.5 |
| 20260508213036 | 25 | 104 | 16.1 | 27.4 | 0.00 | 0.00 | 0.00 | 66 | 1005.7 |
| 20260508211539 | 25 | 146 | 14.5 | 25.7 | 0.00 | 0.00 | 0.00 | 65 | 1006.2 |
| 20260508210030 | 25 | 144 | 12.9 | 22.5 | 0.00 | 0.00 | 0.00 | 66 | 1006.6 |
| 20260508204527 | 25 | 169 | 16.1 | 24.1 | 0.00 | 0.00 | 0.00 | 64 | 1007.0 |
| 20260508203026 | 24 | 157 | 12.9 | 19.3 | 0.00 | 0.00 | 0.00 | 65 | 1007.1 |
| 20260508201520 | 24 | 153 | 12.9 | 19.3 | 0.00 | 0.00 | 0.00 | 66 | 1007.5 |
| 20260508200016 | 23 | 131 | 9.7 | 17.7 | 0.00 | 0.00 | 0.00 | 66 | 1007.7 |
| 20260508194511 | 23 | 138 | 9.7 | 19.3 | 0.00 | 0.00 | 0.00 | 64 | 1007.7 |
| 20260508193010 | 23 | 140 | 14.5 | 25.7 | 0.00 | 0.00 | 0.00 | 65 | 1007.8 |
| 20260508191525 | 23 | 157 | 12.9 | 19.3 | 0.00 | 0.00 | 0.00 | 65 | 1007.9 |
| 20260508190006 | 23 | 136 | 14.5 | 19.3 | 0.00 | 0.00 | 0.00 | 64 | 1008.0 |
| 20260508184504 | 23 | 163 | 12.9 | 20.9 | 0.00 | 0.00 | 0.00 | 65 | 1008.1 |
| 20260508183001 | 23 | 119 | 8.0 | 20.9 | 0.00 | 0.00 | 0.00 | 66 | 1008.4 |
| 20260508181558 | 22 | 160 | 8.0 | 17.7 | 0.00 | 0.00 | 0.00 | 67 | 1008.8 |
| 20260508180110 | 22 | 82 | 8.0 | 16.1 | 0.00 | 0.00 | 0.00 | 68 | 1008.9 |
| 20260508174602 | 22 | 98 | 9.7 | 14.5 | 0.00 | 0.00 | 0.00 | 66 | 1009.4 |
| 20260508173048 | 21 | 176 | 8.0 | 16.1 | 0.00 | 0.00 | 0.00 | 70 | 1009.8 |
| 20260508171545 | 21 | 149 | 9.7 | 17.7 | 0.00 | 0.00 | 0.00 | 70 | 1010.1 |
| 20260508170042 | 20 | 169 | 8.0 | 17.7 | 0.00 | 0.00 | 0.00 | 71 | 1010.4 |
| 20260508164536 | 20 | 189 | 6.4 | 12.9 | 0.00 | 0.00 | 0.00 | 76 | 1010.7 |
| 20260508163037 | 19 | 159 | 8.0 | 16.1 | 0.00 | 0.00 | 0.00 | 78 | 1011.0 |
| 20260508161534 | 18 | 194 | 6.4 | 12.9 | 0.00 | 0.00 | 0.00 | 81 | 1011.0 |
| 20260508160028 | 18 | 148 | 9.7 | 12.9 | 0.00 | 0.00 | 0.00 | 82 | 1011.0 |
| 20260508154528 | 17 | 146 | 4.8 | 12.9 | 0.00 | 0.00 | 0.00 | 82 | 1011.6 |
| 20260508153054 | 17 | 139 | 4.8 | 11.3 | 0.00 | 0.00 | 0.00 | 82 | 1011.2 |
| 20260508151553 | 17 | 146 | 3.2 | 14.5 | 0.00 | 0.00 | 0.00 | 83 | 1011.4 |
| 20260508150052 | 17 | 140 | 8.0 | 16.1 | 0.00 | 0.00 | 0.00 | 81 | 1011.6 |
| 20260508144550 | 17 | 111 | 8.0 | 16.1 | 0.00 | 0.00 | 0.00 | 85 | 1011.4 |
| 20260508143054 | 17 | 115 | 11.3 | 16.1 | 0.00 | 0.00 | 0.00 | 85 | 1011.5 |
| 20260508141547 | 17 | 121 | 6.4 | 11.3 | 0.00 | 0.00 | 0.00 | 88 | 1011.8 |
| 20260508140043 | 16 | 107 | 3.2 | 6.4 | 0.00 | 0.00 | 0.00 | 88 | 1012.1 |
| 20260508134545 | 16 | 147 | 3.2 | 12.9 | 0.00 | 0.00 | 0.00 | 90 | 1012.1 |
| 20260508133043 | 16 | 132 | 1.6 | 4.8 | 0.00 | 0.00 | 0.00 | 91 | 1012.1 |
| 20260508131544 | 16 | 105 | 4.8 | 9.7 | 0.00 | 0.00 | 0.00 | 91 | 1011.9 |
| 20260508130040 | 15 | 109 | 6.4 | 11.3 | 0.00 | 0.00 | 0.00 | 90 | 1011.8 |
| 20260508124539 | 15 | 173 | 0.0 | 0.0 | 0.00 | 0.00 | 0.00 | 90 | 1012.2 |
| 20260508123039 | 15 | 173 | 0.0 | 3.2 | 0.00 | 0.00 | 0.00 | 89 | 1012.5 |
| 20260508121542 | 15 | 109 | 0.0 | 4.8 | 0.00 | 0.00 | 0.00 | 90 | 1012.2 |
| 20260508120042 | 15 | 130 | 6.4 | 14.5 | 0.00 | 0.00 | 0.00 | 89 | 1011.9 |
| 20260508114545 | 15 | 150 | 4.8 | 20.9 | 0.00 | 0.00 | 0.00 | 88 | 1011.8 |
| 20260508113041 | 15 | 130 | 16.1 | 22.5 | 0.00 | 0.00 | 0.00 | 89 | 1011.3 |
| 20260508111549 | 15 | 117 | 9.7 | 16.1 | 0.00 | 0.00 | 0.00 | 90 | 1011.5 |
| 20260508110034 | 15 | 157 | 11.3 | 20.9 | 0.00 | 0.00 | 0.00 | 90 | 1012.1 |
| 20260508104536 | 15 | 159 | 4.8 | 9.7 | 0.00 | 0.00 | 0.00 | 89 | 1012.3 |
| 20260508103036 | 15 | 189 | 3.2 | 8.0 | 0.00 | 0.00 | 0.00 | 90 | 1012.1 |
| 20260508101532 | 15 | 344 | 3.2 | 4.8 | 0.00 | 0.00 | 0.00 | 89 | 1010.9 |
| 20260508100030 | 15 | 59 | 1.6 | 4.8 | 0.00 | 0.00 | 0.00 | 87 | 1010.9 |
| 20260508094529 | 15 | 119 | 0.0 | 4.8 | 0.00 | 0.00 | 0.00 | 86 | 1011.2 |
| 20260508093031 | 15 | 115 | 8.0 | 12.9 | 0.00 | 0.00 | 0.00 | 86 | 1011.0 |
| 20260508091527 | 15 | 138 | 6.4 | 12.9 | 0.00 | 0.00 | 0.00 | 85 | 1011.3 |
| 20260508090025 | 16 | 150 | 3.2 | 6.4 | 0.00 | 0.00 | 0.00 | 83 | 1011.4 |
| 20260508084525 | 16 | 190 | 3.2 | 8.0 | 0.00 | 0.00 | 0.00 | 83 | 1011.6 |
| 20260508083024 | 16 | 177 | 3.2 | 8.0 | 0.00 | 0.00 | 0.00 | 83 | 1011.9 |
| 20260508081523 | 16 | 140 | 12.9 | 19.3 | 0.00 | 0.00 | 0.00 | 83 | 1011.3 |
| 20260508080025 | 16 | 142 | 4.8 | 9.7 | 0.00 | 0.00 | 0.00 | 83 | 1012.5 |
| 20260508074525 | 16 | 184 | 6.4 | 11.3 | 0.00 | 0.00 | 0.00 | 82 | 1012.6 |
| 20260508073019 | 16 | 129 | 4.8 | 8.0 | 0.00 | 0.00 | 0.00 | 81 | 1012.0 |
| 20260508071517 | 16 | 102 | 3.2 | 6.4 | 0.00 | 0.00 | 0.00 | 81 | 1012.3 |
| 20260508070014 | 15 | 126 | 3.2 | 6.4 | 0.00 | 0.00 | 0.00 | 82 | 1012.8 |